Young Ward, Utah
Current Conditions -  °F | °C
As of 5:55 PM on Friday 24 Oct 2014 (Local Time) from KBMC Reporting Station
Clear Clear  
Wind Chill: 73°   Ceiling: Unl
Heat Index: 73°   Visibility: 10mi
Dew Point: 32°   Wind: 0mph
Humidity: 23%   Direction: NA
Pressure: 30.1"   Gusts: NA
Location:  41.645°N, 111.959°W
Report Text: KBMC 242355Z AUTO 00000KT 10SM CLR 23/00 A3010 RMK AO1 T02260001 10367 20003
Loading
Personal Weather Stations






























Interactive Weather Map
Tropical Storm Tracking
New forecast layout! Learn more

10-Day Weather Forecast

Advertisements
Track Severe Weather on mobile